Time;durP1;ratioP1;P1;durP2;ratioP2;P2;SDS_P1;SDS_P2;PMS_P1;PMS_P2;Temp;Humidity;BMP_temperature;BMP_pressure;BME280_temperature;BME280_humidity;BME280_pressure;Samples;Min_cycle;Max_cycle;Signal;HPM_P1;HPM_P2
2023/08/27 00:00:04;;;;;;;6.28;4.65;;;16.30;99.90;;;;;;5048580;28;20081;-74
2023/08/27 00:02:30;;;;;;;4.80;3.90;;;16.30;99.90;;;;;;5048106;28;20021;-74
2023/08/27 00:04:56;;;;;;;4.53;4.20;;;16.40;99.90;;;;;;5048408;28;20048;-74
2023/08/27 00:07:21;;;;;;;5.00;4.50;;;16.40;99.90;;;;;;5049628;28;20394;-74
2023/08/27 00:09:47;;;;;;;4.93;4.18;;;16.40;99.90;;;;;;5048275;28;20033;-74
2023/08/27 00:12:12;;;;;;;3.78;3.45;;;16.40;99.90;;;;;;5049992;28;20110;-74
2023/08/27 00:14:38;;;;;;;5.07;3.75;;;16.50;99.90;;;;;;5049000;28;20021;-74
2023/08/27 00:17:04;;;;;;;3.20;2.95;;;16.50;99.90;;;;;;5049758;28;20108;-74
2023/08/27 00:19:29;;;;;;;3.53;3.17;;;16.50;99.90;;;;;;5049471;28;20100;-74
2023/08/27 00:21:57;;;;;;;5.18;3.45;;;16.60;99.90;;;;;;5050352;28;20385;-74
2023/08/27 00:24:24;;;;;;;3.65;3.25;;;16.60;99.90;;;;;;5049611;28;20017;-74
2023/08/27 00:26:49;;;;;;;3.53;2.67;;;16.50;99.90;;;;;;5050628;28;20076;-74
2023/08/27 00:29:19;;;;;;;3.42;2.75;;;16.50;99.90;;;;;;5049288;28;20059;-74
2023/08/27 00:31:45;;;;;;;2.65;2.45;;;16.50;99.90;;;;;;5049094;28;20421;-74
2023/08/27 00:34:10;;;;;;;3.75;3.08;;;16.40;99.90;;;;;;5048751;28;20051;-74
2023/08/27 00:36:36;;;;;;;2.65;2.45;;;16.40;99.90;;;;;;5049116;28;20033;-74
2023/08/27 00:39:02;;;;;;;2.75;2.53;;;16.40;99.90;;;;;;5048487;28;20028;-74
2023/08/27 00:41:27;;;;;;;2.42;2.22;;;16.30;99.90;;;;;;5048791;28;20478;-73
2023/08/27 00:43:53;;;;;;;2.58;2.35;;;16.30;99.90;;;;;;5047842;28;20188;-74
2023/08/27 00:46:19;;;;;;;3.20;2.88;;;16.30;99.90;;;;;;5061102;28;20078;-74
2023/08/27 00:48:44;;;;;;;3.45;2.42;;;16.30;99.90;;;;;;5061340;28;20024;-74
2023/08/27 00:51:10;;;;;;;6.50;3.00;;;16.30;99.90;;;;;;5058122;28;20379;-74
2023/08/27 00:53:37;;;;;;;2.45;2.25;;;16.20;99.90;;;;;;5062470;28;20363;-74
2023/08/27 00:56:03;;;;;;;4.72;2.30;;;16.20;99.90;;;;;;5050121;28;20032;-74
2023/08/27 00:58:29;;;;;;;2.92;2.58;;;16.20;99.90;;;;;;5052079;28;20082;-74
2023/08/27 01:00:55;;;;;;;2.97;2.00;;;16.20;99.90;;;;;;5051509;28;20758;-74
2023/08/27 01:03:20;;;;;;;3.72;3.10;;;16.20;99.90;;;;;;5052542;28;20087;-74
2023/08/27 01:05:46;;;;;;;4.82;2.30;;;16.20;99.90;;;;;;5052381;28;20120;-74
2023/08/27 01:08:42;;;;;;;2.78;2.58;;;16.20;99.90;;;;;;5052684;28;20021;-74
2023/08/27 01:11:14;;;;;;;2.22;1.88;;;16.20;99.90;;;;;;5051540;28;20108;-74
2023/08/27 01:13:52;;;;;;;3.77;2.10;;;16.20;99.90;;;;;;5052187;28;20478;-74
2023/08/27 01:16:20;;;;;;;2.72;2.33;;;16.30;99.90;;;;;;5051655;28;20091;-74
2023/08/27 01:18:47;;;;;;;3.28;2.65;;;16.20;99.90;;;;;;5051842;28;20070;-74
2023/08/27 01:21:22;;;;;;;3.10;2.67;;;16.20;99.90;;;;;;5061134;28;20020;-74
2023/08/27 01:23:48;;;;;;;3.38;2.05;;;16.30;99.90;;;;;;5052881;28;20024;-74
2023/08/27 01:26:39;;;;;;;2.58;2.38;;;16.30;99.90;;;;;;5051416;28;20029;-74
2023/08/27 01:29:31;;;;;;;2.88;2.50;;;16.30;99.90;;;;;;5039638;28;20346;-73
2023/08/27 01:32:29;;;;;;;3.17;2.72;;;16.30;99.90;;;;;;5054023;28;20036;-74
2023/08/27 01:34:56;;;;;;;2.70;2.50;;;16.30;99.90;;;;;;5070252;28;20120;-74
2023/08/27 01:37:22;;;;;;;2.40;2.20;;;16.30;99.90;;;;;;5071195;28;20062;-74
2023/08/27 01:39:59;;;;;;;2.40;2.20;;;16.30;99.90;;;;;;5054389;28;20032;-74
2023/08/27 01:42:24;;;;;;;2.75;2.22;;;16.30;99.90;;;;;;5051116;28;20060;-73
2023/08/27 01:44:50;;;;;;;3.25;2.97;;;16.20;99.90;;;;;;5050092;28;20051;-74
2023/08/27 01:47:16;;;;;;;3.30;2.38;;;16.20;99.90;;;;;;5061969;28;20067;-74
2023/08/27 01:49:42;;;;;;;2.80;2.45;;;16.20;99.90;;;;;;5052859;28;20048;-74
2023/08/27 01:52:07;;;;;;;2.10;1.90;;;16.20;99.90;;;;;;5050540;28;20522;-74
2023/08/27 01:54:33;;;;;;;4.00;2.72;;;16.20;99.90;;;;;;5050417;28;20044;-73
2023/08/27 01:56:59;;;;;;;3.42;2.88;;;16.20;99.90;;;;;;5060423;28;20066;-74
2023/08/27 01:59:24;;;;;;;3.08;2.63;;;16.20;99.90;;;;;;5053338;28;20080;-74
2023/08/27 02:01:50;;;;;;;2.60;2.22;;;16.30;99.90;;;;;;5060090;28;20100;-74
2023/08/27 02:04:15;;;;;;;2.60;2.35;;;16.30;99.90;;;;;;5069140;28;20020;-73
2023/08/27 02:06:41;;;;;;;3.97;2.45;;;16.30;99.90;;;;;;5060564;28;20476;-74
2023/08/27 02:09:06;;;;;;;2.50;2.28;;;16.30;99.90;;;;;;5069107;28;20481;-74
2023/08/27 02:11:32;;;;;;;2.17;1.98;;;16.20;99.90;;;;;;5063921;28;20096;-74
2023/08/27 02:13:57;;;;;;;5.53;2.90;;;16.20;99.90;;;;;;5068382;28;20386;-73
2023/08/27 02:16:23;;;;;;;2.85;2.42;;;16.20;99.90;;;;;;5069664;28;20032;-74
2023/08/27 02:18:49;;;;;;;3.38;3.08;;;16.10;99.90;;;;;;5066968;28;20020;-74
2023/08/27 02:21:15;;;;;;;3.55;3.25;;;16.10;99.90;;;;;;5070047;28;20436;-74
2023/08/27 02:23:40;;;;;;;3.60;2.15;;;16.10;99.90;;;;;;5068265;28;20029;-74
2023/08/27 02:26:06;;;;;;;3.20;2.58;;;16.00;99.90;;;;;;5069006;28;20029;-74
2023/08/27 02:28:33;;;;;;;3.17;2.90;;;16.00;99.90;;;;;;5068188;28;20110;-73
2023/08/27 02:30:59;;;;;;;2.20;2.00;;;16.00;99.90;;;;;;5068540;28;20020;-74
2023/08/27 02:33:24;;;;;;;2.47;2.28;;;16.00;99.90;;;;;;5068399;28;20135;-74
2023/08/27 02:35:50;;;;;;;3.00;2.28;;;16.00;99.90;;;;;;5069492;28;20028;-74
2023/08/27 02:38:18;;;;;;;3.22;2.30;;;15.90;99.90;;;;;;5068709;28;20031;-73
2023/08/27 02:40:43;;;;;;;2.45;2.13;;;15.90;99.90;;;;;;5069424;28;20130;-74
2023/08/27 02:43:09;;;;;;;3.08;2.53;;;15.90;99.90;;;;;;5068191;28;20099;-74
2023/08/27 02:45:35;;;;;;;3.40;2.45;;;15.90;99.90;;;;;;5069516;28;20028;-74
2023/08/27 02:48:00;;;;;;;2.63;2.28;;;15.80;99.90;;;;;;5083899;28;20380;-74
2023/08/27 02:50:26;;;;;;;3.22;2.40;;;15.80;99.90;;;;;;5069350;28;20140;-74
2023/08/27 02:52:51;;;;;;;2.58;2.35;;;15.80;99.90;;;;;;5052074;28;20025;-74
2023/08/27 02:55:17;;;;;;;2.47;2.13;;;15.80;99.90;;;;;;5053313;28;20041;-74
2023/08/27 02:57:42;;;;;;;2.40;2.20;;;15.70;99.90;;;;;;5049291;28;20120;-74
2023/08/27 03:00:08;;;;;;;2.72;2.25;;;15.80;99.90;;;;;;5049571;28;20029;-74
2023/08/27 03:02:34;;;;;;;4.93;2.28;;;15.80;99.90;;;;;;5049988;28;20076;-74
2023/08/27 03:05:04;;;;;;;2.78;2.25;;;15.80;99.90;;;;;;5058733;28;20052;-74
2023/08/27 03:07:29;;;;;;;2.88;2.50;;;15.90;99.90;;;;;;5055624;28;20024;-74
2023/08/27 03:09:55;;;;;;;3.28;2.00;;;15.90;99.90;;;;;;5064764;28;20035;-74
2023/08/27 03:12:21;;;;;;;2.53;2.33;;;15.90;99.90;;;;;;5065152;28;20031;-74
2023/08/27 03:14:46;;;;;;;2.10;1.88;;;15.90;99.90;;;;;;5069106;28;20366;-74
2023/08/27 03:17:12;;;;;;;3.97;1.95;;;15.90;99.90;;;;;;5068388;28;20021;-74
2023/08/27 03:19:37;;;;;;;3.20;1.80;;;16.00;99.90;;;;;;5069138;28;20024;-74
2023/08/27 03:22:03;;;;;;;2.22;2.03;;;15.90;99.90;;;;;;5051553;28;20047;-74
2023/08/27 03:24:29;;;;;;;2.83;1.65;;;16.00;99.90;;;;;;5059484;28;20025;-74
2023/08/27 03:26:54;;;;;;;5.70;1.90;;;16.00;99.90;;;;;;5065972;28;20021;-74
2023/08/27 03:29:21;;;;;;;2.35;2.10;;;16.00;99.90;;;;;;5068396;28;20020;-75
2023/08/27 03:31:47;;;;;;;2.00;1.80;;;16.10;99.90;;;;;;5066889;28;20020;-74
2023/08/27 03:34:13;;;;;;;2.15;1.92;;;16.10;99.90;;;;;;5068372;28;20028;-74
2023/08/27 03:36:38;;;;;;;2.78;2.03;;;16.10;99.90;;;;;;5067615;28;20485;-74
2023/08/27 03:39:04;;;;;;;2.45;1.70;;;16.10;99.90;;;;;;5067502;28;20028;-74
2023/08/27 03:41:30;;;;;;;3.47;2.28;;;16.10;99.90;;;;;;5065539;28;20465;-74
2023/08/27 03:43:55;;;;;;;3.17;2.38;;;16.10;99.90;;;;;;5061093;28;20055;-74
2023/08/27 03:46:21;;;;;;;3.13;2.28;;;16.10;99.90;;;;;;5065239;28;20501;-74
2023/08/27 03:48:47;;;;;;;5.00;2.33;;;16.10;99.90;;;;;;5066894;28;20020;-75
2023/08/27 03:51:12;;;;;;;3.92;3.20;;;16.10;99.90;;;;;;5064189;28;20037;-74
2023/08/27 03:53:38;;;;;;;3.78;2.80;;;16.00;99.90;;;;;;5048864;28;20115;-75
2023/08/27 03:56:04;;;;;;;3.30;2.70;;;16.00;99.90;;;;;;5047774;28;20055;-74
2023/08/27 03:58:31;;;;;;;3.25;2.83;;;16.00;99.90;;;;;;5047387;28;20036;-75
2023/08/27 04:00:56;;;;;;;4.70;3.17;;;15.90;99.90;;;;;;5048444;28;20199;-74
2023/08/27 04:03:22;;;;;;;4.55;3.45;;;15.90;99.90;;;;;;5047324;28;20478;-74
2023/08/27 04:05:49;;;;;;;3.63;2.97;;;15.90;99.90;;;;;;5048032;28;20029;-75
2023/08/27 04:08:15;;;;;;;4.05;3.58;;;15.90;99.90;;;;;;5048332;28;20527;-74
2023/08/27 04:10:48;;;;;;;4.03;3.15;;;15.90;99.90;;;;;;5055442;28;20116;-74
2023/08/27 04:13:13;;;;;;;3.38;2.70;;;15.90;99.90;;;;;;5058620;28;20064;-75
2023/08/27 04:15:39;;;;;;;6.70;3.72;;;15.90;99.90;;;;;;5067836;28;20477;-74
2023/08/27 04:18:05;;;;;;;6.18;4.20;;;15.90;99.90;;;;;;5067627;28;20051;-74
2023/08/27 04:20:31;;;;;;;4.97;3.40;;;15.90;99.90;;;;;;5067163;28;20037;-74
2023/08/27 04:22:56;;;;;;;5.80;3.60;;;15.90;99.90;;;;;;5067190;28;20017;-74
2023/08/27 04:25:22;;;;;;;7.00;4.28;;;15.90;99.90;;;;;;5064969;28;20104;-74
2023/08/27 04:27:47;;;;;;;6.50;3.65;;;15.90;99.90;;;;;;5067321;28;20025;-74
2023/08/27 04:30:13;;;;;;;5.90;3.63;;;15.90;99.90;;;;;;5064890;28;20023;-75
2023/08/27 04:32:39;;;;;;;3.75;3.30;;;15.90;99.90;;;;;;5063160;28;20142;-74
2023/08/27 04:35:05;;;;;;;8.15;4.50;;;15.90;99.90;;;;;;5045430;28;20108;-74
2023/08/27 04:37:30;;;;;;;5.68;3.67;;;15.90;99.90;;;;;;5047895;28;20025;-74
2023/08/27 04:39:56;;;;;;;4.75;3.40;;;15.90;99.90;;;;;;5047130;28;20116;-74
2023/08/27 04:42:21;;;;;;;4.03;3.20;;;15.90;99.90;;;;;;5047823;28;20036;-74
2023/08/27 04:44:47;;;;;;;5.82;3.88;;;15.90;99.90;;;;;;5047737;28;20021;-75
2023/08/27 04:47:13;;;;;;;3.40;2.65;;;15.90;99.90;;;;;;5047658;28;20017;-75
2023/08/27 04:49:38;;;;;;;5.95;3.13;;;15.90;99.90;;;;;;5051204;28;20043;-74
2023/08/27 04:52:04;;;;;;;3.75;3.28;;;15.80;99.90;;;;;;5057853;28;20051;-75
2023/08/27 04:54:30;;;;;;;4.97;3.22;;;15.90;99.90;;;;;;5047935;28;20500;-75
2023/08/27 04:56:55;;;;;;;5.18;3.30;;;15.80;99.90;;;;;;5047485;28;20021;-75
2023/08/27 04:59:21;;;;;;;3.75;2.80;;;15.80;99.90;;;;;;5048109;28;20289;-75
2023/08/27 05:01:46;;;;;;;4.50;2.55;;;15.80;99.90;;;;;;5047558;28;20029;-75
2023/08/27 05:04:12;;;;;;;6.18;2.90;;;15.90;99.90;;;;;;5047104;28;20464;-75
2023/08/27 05:06:37;;;;;;;3.60;2.95;;;15.90;99.90;;;;;;5048717;28;20021;-75
2023/08/27 05:09:03;;;;;;;4.60;3.05;;;15.80;99.90;;;;;;5046733;28;20032;-75
2023/08/27 05:11:29;;;;;;;4.13;2.85;;;15.80;99.90;;;;;;5048465;28;20033;-75
2023/08/27 05:13:54;;;;;;;7.65;3.47;;;15.80;99.90;;;;;;5048516;28;20092;-75
2023/08/27 05:16:20;;;;;;;3.65;3.00;;;15.80;99.90;;;;;;5047562;28;20025;-75
2023/08/27 05:18:45;;;;;;;6.22;3.00;;;15.80;99.90;;;;;;5048513;28;21435;-74
2023/08/27 05:21:11;;;;;;;4.20;2.95;;;15.90;99.90;;;;;;5047813;28;20032;-74
2023/08/27 05:23:36;;;;;;;3.55;2.80;;;15.80;99.90;;;;;;5048291;28;20028;-74
2023/08/27 05:26:02;;;;;;;3.03;2.78;;;15.80;99.90;;;;;;5047814;28;20028;-74
2023/08/27 05:28:27;;;;;;;4.85;2.70;;;15.80;99.90;;;;;;5048645;28;20109;-75
2023/08/27 05:30:53;;;;;;;5.60;2.70;;;15.80;99.90;;;;;;5047786;28;20109;-74
2023/08/27 05:33:19;;;;;;;4.65;2.72;;;15.80;99.90;;;;;;5048903;28;20036;-74
2023/08/27 05:35:44;;;;;;;4.47;3.10;;;15.80;99.90;;;;;;5051362;28;20116;-75
2023/08/27 05:38:10;;;;;;;3.55;2.80;;;15.80;99.90;;;;;;5050679;28;20036;-75
2023/08/27 05:40:35;;;;;;;2.95;2.38;;;15.80;99.90;;;;;;5051475;28;20025;-74
2023/08/27 05:43:01;;;;;;;2.42;2.08;;;15.80;99.90;;;;;;5050690;28;20097;-74
2023/08/27 05:45:26;;;;;;;4.22;2.58;;;15.80;99.90;;;;;;5059382;28;20021;-75
2023/08/27 05:47:52;;;;;;;8.23;2.75;;;15.80;99.90;;;;;;5055702;28;20056;-74
2023/08/27 05:50:17;;;;;;;2.30;1.75;;;15.70;99.90;;;;;;5059279;28;20012;-74
2023/08/27 05:52:43;;;;;;;4.40;2.20;;;15.80;99.90;;;;;;5067152;28;20078;-74
2023/08/27 05:55:09;;;;;;;7.55;2.67;;;15.80;99.90;;;;;;5058661;28;20075;-74
2023/08/27 05:57:34;;;;;;;3.00;1.80;;;15.80;99.90;;;;;;5068259;28;20397;-74
2023/08/27 06:00:00;;;;;;;4.63;2.55;;;15.90;99.90;;;;;;5067581;28;20029;-74
2023/08/27 06:02:26;;;;;;;4.30;2.03;;;16.00;99.90;;;;;;5069150;28;20020;-74
2023/08/27 06:04:51;;;;;;;2.65;2.42;;;16.00;99.90;;;;;;5069755;28;20542;-74
2023/08/27 06:07:17;;;;;;;1.92;1.45;;;16.10;99.90;;;;;;5069242;28;20496;-74
2023/08/27 06:09:43;;;;;;;3.97;1.90;;;16.10;99.90;;;;;;5063039;28;20033;-75
2023/08/27 06:12:08;;;;;;;3.97;1.90;;;16.20;99.90;;;;;;5065545;28;20025;-75
2023/08/27 06:14:34;;;;;;;1.98;1.77;;;16.20;99.90;;;;;;5064307;28;20029;-74
2023/08/27 06:17:00;;;;;;;4.32;1.75;;;16.30;99.90;;;;;;5063802;28;20759;-75
2023/08/27 06:19:25;;;;;;;3.15;1.60;;;16.30;99.90;;;;;;5069017;28;20021;-75
2023/08/27 06:21:51;;;;;;;2.67;1.58;;;16.30;99.90;;;;;;5065566;28;20043;-75
2023/08/27 06:24:16;;;;;;;7.10;1.95;;;16.40;99.90;;;;;;5059515;28;20039;-74
2023/08/27 06:26:42;;;;;;;3.85;2.10;;;16.40;99.90;;;;;;5061998;28;20469;-74
2023/08/27 06:29:07;;;;;;;2.67;1.80;;;16.50;99.90;;;;;;5069069;28;20013;-74
2023/08/27 06:31:33;;;;;;;2.17;1.65;;;16.50;99.90;;;;;;5068354;28;20241;-74
2023/08/27 06:33:58;;;;;;;2.65;1.83;;;16.60;99.90;;;;;;5067436;28;20108;-75
2023/08/27 06:36:24;;;;;;;3.00;2.03;;;16.60;99.90;;;;;;5067609;28;20017;-74
2023/08/27 06:38:49;;;;;;;2.50;1.90;;;16.70;99.90;;;;;;5060532;28;20108;-74
2023/08/27 06:41:15;;;;;;;2.80;1.90;;;16.60;99.90;;;;;;5066928;28;20105;-74
2023/08/27 06:43:41;;;;;;;4.32;2.47;;;16.60;99.90;;;;;;5068869;28;20032;-74
2023/08/27 06:46:10;;;;;;;3.17;2.30;;;16.60;99.90;;;;;;5054530;28;20112;-74
2023/08/27 06:48:36;;;;;;;2.97;2.35;;;16.50;99.90;;;;;;5068652;28;20025;-74
2023/08/27 06:51:01;;;;;;;5.75;3.13;;;16.50;99.90;;;;;;5066623;28;20054;-74
2023/08/27 06:53:27;;;;;;;2.97;1.95;;;16.50;99.90;;;;;;5069381;28;20021;-74
2023/08/27 06:55:52;;;;;;;4.93;2.78;;;16.40;99.90;;;;;;5069008;28;20036;-74
2023/08/27 06:58:18;;;;;;;6.20;3.08;;;16.50;99.90;;;;;;5069068;28;20024;-74
2023/08/27 07:00:44;;;;;;;5.13;2.92;;;16.40;99.90;;;;;;5068423;28;20036;-74
2023/08/27 07:03:10;;;;;;;5.30;3.08;;;16.40;99.90;;;;;;5061097;28;20462;-74
2023/08/27 07:05:35;;;;;;;4.13;2.80;;;16.40;99.90;;;;;;5068438;28;20050;-73
2023/08/27 07:08:01;;;;;;;4.88;3.08;;;16.40;99.90;;;;;;5061757;28;20182;-75
2023/08/27 07:10:27;;;;;;;5.90;3.22;;;16.50;99.90;;;;;;5063104;28;20028;-75
2023/08/27 07:12:52;;;;;;;4.10;3.42;;;16.60;99.90;;;;;;5069174;28;20028;-75
2023/08/27 07:15:18;;;;;;;5.15;3.50;;;16.60;99.90;;;;;;5053895;28;20045;-75
2023/08/27 07:17:43;;;;;;;3.97;3.33;;;16.70;99.90;;;;;;5058225;28;20497;-75
2023/08/27 07:20:09;;;;;;;5.20;3.33;;;16.80;99.90;;;;;;5052505;28;20100;-74
2023/08/27 07:22:35;;;;;;;5.28;3.85;;;16.90;99.90;;;;;;5048070;28;20036;-74
2023/08/27 07:25:01;;;;;;;4.53;4.07;;;17.10;99.90;;;;;;5049761;28;20021;-75
2023/08/27 07:27:26;;;;;;;7.00;4.38;;;17.10;99.90;;;;;;5049721;28;20028;-75
2023/08/27 07:29:53;;;;;;;4.40;3.90;;;17.10;99.90;;;;;;5049282;28;20055;-75
2023/08/27 07:32:19;;;;;;;4.97;4.32;;;17.20;99.90;;;;;;5048599;28;20440;-75
2023/08/27 07:34:44;;;;;;;4.22;3.50;;;17.30;99.90;;;;;;5063551;28;20158;-74
2023/08/27 07:37:10;;;;;;;5.32;3.95;;;17.30;99.90;;;;;;5067125;28;20020;-75
2023/08/27 07:39:35;;;;;;;4.75;3.85;;;17.40;99.90;;;;;;5050449;28;20029;-74
2023/08/27 07:42:02;;;;;;;4.40;3.65;;;17.40;99.90;;;;;;5060488;28;20043;-71
2023/08/27 07:44:28;;;;;;;5.68;3.65;;;17.50;99.90;;;;;;5066947;28;20117;-70
2023/08/27 07:46:53;;;;;;;5.15;3.70;;;17.50;99.90;;;;;;5059747;28;20477;-70
2023/08/27 07:49:19;;;;;;;6.57;4.30;;;17.60;99.90;;;;;;5066601;28;20028;-70
2023/08/27 07:51:45;;;;;;;4.93;3.65;;;17.60;99.90;;;;;;5068697;28;20028;-70
2023/08/27 07:54:11;;;;;;;6.57;4.78;;;17.60;99.90;;;;;;5054354;28;20045;-71
2023/08/27 07:56:37;;;;;;;5.45;3.92;;;17.60;99.90;;;;;;5061244;28;20048;-70
2023/08/27 07:59:02;;;;;;;6.00;4.72;;;17.60;99.90;;;;;;5048626;28;20036;-70
2023/08/27 08:01:28;;;;;;;7.20;4.28;;;17.70;99.90;;;;;;5047987;28;20028;-70
2023/08/27 08:03:53;;;;;;;4.85;4.45;;;17.90;99.90;;;;;;5059598;28;20062;-71
2023/08/27 08:06:19;;;;;;;7.03;4.35;;;18.10;99.90;;;;;;5067323;28;20017;-70
2023/08/27 08:08:44;;;;;;;10.65;5.60;;;18.20;99.90;;;;;;5068134;28;20813;-70
2023/08/27 08:11:10;;;;;;;5.70;4.63;;;18.30;99.90;;;;;;5067126;28;20020;-70
2023/08/27 08:13:36;;;;;;;5.50;4.40;;;18.30;99.90;;;;;;5057445;28;20029;-70
2023/08/27 08:16:02;;;;;;;7.05;5.63;;;18.30;99.90;;;;;;5067240;28;20048;-70
2023/08/27 08:18:28;;;;;;;7.80;5.40;;;18.30;99.90;;;;;;5057389;28;20043;-70
2023/08/27 08:20:55;;;;;;;7.47;5.13;;;18.20;99.90;;;;;;5066710;28;20051;-70
2023/08/27 08:23:22;;;;;;;6.78;5.00;;;18.30;99.90;;;;;;5067655;28;20315;-70
2023/08/27 08:25:50;;;;;;;7.70;6.40;;;18.30;99.90;;;;;;5067427;28;20024;-70
2023/08/27 08:28:16;;;;;;;8.98;6.47;;;18.40;99.90;;;;;;5059791;28;20386;-70
2023/08/27 08:30:48;;;;;;;7.70;6.90;;;18.50;99.90;;;;;;5047666;28;20025;-70
2023/08/27 08:33:14;;;;;;;7.70;5.75;;;18.60;99.90;;;;;;5048442;28;20361;-70
2023/08/27 08:35:40;;;;;;;9.27;6.50;;;18.70;99.90;;;;;;5048639;28;20089;-71
2023/08/27 08:38:05;;;;;;;9.32;6.65;;;18.70;99.90;;;;;;5048582;28;20470;-70
2023/08/27 08:40:45;;;;;;;7.75;6.97;;;18.80;99.90;;;;;;5048176;28;20040;-72
2023/08/27 08:43:22;;;;;;;8.90;5.50;;;18.90;99.90;;;;;;5047783;28;20056;-70
2023/08/27 08:45:52;;;;;;;7.25;6.05;;;19.10;99.90;;;;;;5047377;28;20052;-70
2023/08/27 08:48:22;;;;;;;5.97;4.25;;;19.10;99.90;;;;;;5057941;28;20032;-71
2023/08/27 08:50:50;;;;;;;10.43;6.05;;;19.20;99.90;;;;;;5065633;28;20028;-70
2023/08/27 08:53:17;;;;;;;6.78;5.82;;;19.10;99.90;;;;;;5066103;28;20020;-70
2023/08/27 08:55:46;;;;;;;6.05;4.70;;;19.10;99.90;;;;;;5056457;28;20032;-70
2023/08/27 08:58:13;;;;;;;6.20;4.45;;;19.00;99.90;;;;;;5035911;28;20021;-70
2023/08/27 09:00:39;;;;;;;4.28;3.90;;;19.10;99.90;;;;;;5056094;28;20033;-70
2023/08/27 09:03:05;;;;;;;5.75;3.70;;;19.10;99.90;;;;;;5052861;28;20115;-70
2023/08/27 09:05:35;;;;;;;4.30;3.35;;;19.10;99.90;;;;;;5049300;28;20025;-71
2023/08/27 09:08:02;;;;;;;6.30;3.20;;;19.10;99.90;;;;;;5053785;28;20013;-70
2023/08/27 09:10:28;;;;;;;4.38;3.88;;;19.10;99.90;;;;;;5061377;28;20027;-71
2023/08/27 09:12:57;;;;;;;6.85;3.92;;;19.10;99.90;;;;;;5054153;28;20029;-70
2023/08/27 09:15:23;;;;;;;4.43;3.35;;;19.10;99.90;;;;;;5046232;28;20025;-71
2023/08/27 09:17:49;;;;;;;7.00;3.33;;;19.20;99.90;;;;;;5056575;28;20100;-70
2023/08/27 09:20:15;;;;;;;4.72;2.80;;;19.40;99.90;;;;;;5060927;28;20100;-70
2023/08/27 09:22:42;;;;;;;6.60;2.90;;;19.50;99.90;;;;;;5056564;28;20021;-70
2023/08/27 09:25:10;;;;;;;4.10;3.38;;;19.60;99.90;;;;;;5058932;28;20016;-70
2023/08/27 09:27:36;;;;;;;4.78;3.58;;;19.60;99.90;;;;;;5056463;28;20025;-70
2023/08/27 09:30:03;;;;;;;3.67;3.13;;;19.50;99.90;;;;;;5057136;28;20735;-70
2023/08/27 09:32:29;;;;;;;7.70;3.78;;;19.50;99.90;;;;;;5053317;28;20029;-70
2023/08/27 09:34:59;;;;;;;3.88;3.20;;;19.50;99.90;;;;;;5055358;28;20021;-70
2023/08/27 09:37:36;;;;;;;3.47;3.03;;;19.60;99.90;;;;;;5052786;28;20036;-70
2023/08/27 09:40:04;;;;;;;4.75;2.92;;;19.50;99.90;;;;;;5051358;28;20336;-70
2023/08/27 09:42:31;;;;;;;4.32;2.72;;;19.50;99.90;;;;;;5052957;28;20040;-70
2023/08/27 09:44:57;;;;;;;3.85;2.65;;;19.40;99.90;;;;;;5051708;28;20070;-70
2023/08/27 09:47:36;;;;;;;3.35;2.70;;;19.40;99.90;;;;;;5038815;28;20029;-70
2023/08/27 09:50:15;;;;;;;3.25;2.25;;;19.40;99.90;;;;;;5044976;28;20095;-69
2023/08/27 09:52:42;;;;;;;5.70;2.22;;;19.50;99.90;;;;;;5047841;28;20036;-70
2023/08/27 09:55:15;;;;;;;3.60;2.28;;;19.70;99.90;;;;;;5048079;28;20041;-69
2023/08/27 09:57:50;;;;;;;4.63;2.30;;;19.80;99.90;;;;;;5047486;28;20416;-70
2023/08/27 10:00:18;;;;;;;3.88;1.60;;;20.00;99.90;;;;;;5047600;28;20021;-70
2023/08/27 10:02:44;;;;;;;3.83;2.10;;;20.30;99.90;;;;;;5046227;28;20025;-69
2023/08/27 10:05:10;;;;;;;3.40;1.65;;;20.50;99.90;;;;;;5046591;28;20032;-70
2023/08/27 10:07:35;;;;;;;1.85;1.48;;;20.60;99.50;;;;;;5047413;28;20029;-70
2023/08/27 10:10:05;;;;;;;2.72;1.40;;;20.80;99.10;;;;;;5047680;28;20095;-69
2023/08/27 10:12:31;;;;;;;4.07;1.38;;;21.00;98.60;;;;;;5046261;28;20101;-70
2023/08/27 10:14:59;;;;;;;4.18;1.55;;;21.00;98.00;;;;;;5045826;28;20040;-69
2023/08/27 10:17:25;;;;;;;2.70;1.73;;;21.00;97.60;;;;;;5047229;28;20036;-70
2023/08/27 10:19:51;;;;;;;5.35;1.33;;;20.90;97.70;;;;;;5045873;28;20040;-71
2023/08/27 10:22:19;;;;;;;3.88;1.50;;;20.90;97.60;;;;;;5047175;28;20020;-69
2023/08/27 10:24:46;;;;;;;2.53;1.02;;;21.00;97.90;;;;;;5047340;28;20025;-69
2023/08/27 10:27:12;;;;;;;1.08;0.60;;;21.20;97.60;;;;;;5046970;28;20486;-70
2023/08/27 10:29:37;;;;;;;0.73;0.60;;;21.30;96.40;;;;;;5046940;28;20079;-70
2023/08/27 10:32:03;;;;;;;0.63;0.40;;;21.20;95.40;;;;;;5046918;28;20362;-69
2023/08/27 10:34:30;;;;;;;0.60;0.30;;;21.00;94.40;;;;;;5046868;28;20060;-69
2023/08/27 10:37:03;;;;;;;0.63;0.40;;;20.80;93.10;;;;;;5047112;28;20063;-71
2023/08/27 10:39:31;;;;;;;0.80;0.30;;;20.50;92.90;;;;;;5053487;28;20069;-71
2023/08/27 10:41:56;;;;;;;0.80;0.40;;;20.30;93.40;;;;;;5047383;28;20108;-71
2023/08/27 10:44:22;;;;;;;2.92;0.30;;;20.20;93.40;;;;;;5047116;28;20154;-71
2023/08/27 10:47:07;;;;;;;0.80;0.40;;;20.10;93.20;;;;;;5047906;28;20104;-70
2023/08/27 10:49:37;;;;;;;0.63;0.50;;;20.00;93.30;;;;;;5066700;28;21192;-70
2023/08/27 10:52:51;;;;;;;0.73;0.43;;;19.90;93.80;;;;;;5067804;28;20082;-70
2023/08/27 10:55:21;;;;;;;0.80;0.60;;;19.80;94.10;;;;;;5045726;28;20116;-72
2023/08/27 10:57:46;;;;;;;1.08;0.60;;;19.60;94.50;;;;;;5062155;28;20017;-72
2023/08/27 11:00:13;;;;;;;0.80;0.60;;;19.50;94.90;;;;;;5064587;28;20025;-72
2023/08/27 11:03:13;;;;;;;2.90;0.73;;;19.70;95.40;;;;;;5061209;28;20029;-72
2023/08/27 11:05:38;;;;;;;1.65;0.68;;;19.90;95.40;;;;;;5059581;28;20029;-72
2023/08/27 11:08:16;;;;;;;1.70;0.63;;;20.10;95.00;;;;;;5054144;28;20448;-72
2023/08/27 11:10:42;;;;;;;1.80;0.95;;;20.30;94.50;;;;;;5053948;28;20489;-71
2023/08/27 11:13:37;;;;;;;1.67;0.52;;;20.30;94.20;;;;;;5060753;28;20055;-71
2023/08/27 11:16:16;;;;;;;1.20;0.63;;;20.20;93.90;;;;;;5059797;28;20032;-71
2023/08/27 11:18:49;;;;;;;2.08;0.60;;;20.00;94.30;;;;;;5061083;28;20105;-71
2023/08/27 11:21:38;;;;;;;0.88;0.50;;;19.80;94.50;;;;;;5061119;28;20389;-71
2023/08/27 11:24:34;;;;;;;2.08;0.75;;;19.50;94.70;;;;;;5052588;28;20033;-71
2023/08/27 11:27:02;;;;;;;2.10;0.50;;;19.20;95.10;;;;;;5050328;28;20482;-69
2023/08/27 11:29:28;;;;;;;3.28;0.90;;;19.00;95.20;;;;;;5047738;28;20017;-70
2023/08/27 11:31:56;;;;;;;7.57;1.58;;;18.80;95.30;;;;;;5048257;28;20032;-70
2023/08/27 11:34:22;;;;;;;4.90;1.80;;;18.60;96.10;;;;;;5044528;28;20021;-69
2023/08/27 11:36:49;;;;;;;6.18;1.85;;;18.10;97.10;;;;;;5045818;28;20032;-69
2023/08/27 11:39:16;;;;;;;4.47;1.63;;;17.70;97.90;;;;;;5048569;28;20024;-69
2023/08/27 11:41:46;;;;;;;4.38;1.50;;;17.30;98.50;;;;;;5043842;28;20218;-69
2023/08/27 11:44:12;;;;;;;3.08;1.58;;;17.00;99.30;;;;;;5046191;28;20013;-69
2023/08/27 11:46:39;;;;;;;3.60;1.98;;;16.70;99.60;;;;;;5049716;28;20027;-69
2023/08/27 11:49:05;;;;;;;2.03;1.67;;;16.60;99.90;;;;;;5045686;28;20021;-70
2023/08/27 11:51:33;;;;;;;4.05;1.50;;;16.50;99.90;;;;;;5045100;28;20106;-69
2023/08/27 11:53:59;;;;;;;2.90;1.10;;;16.40;99.90;;;;;;5045195;28;20056;-69
2023/08/27 11:56:26;;;;;;;2.33;1.20;;;16.40;99.90;;;;;;5044995;28;20037;-69
2023/08/27 11:58:54;;;;;;;2.67;1.10;;;16.30;99.90;;;;;;5045635;28;20545;-69
2023/08/27 12:01:20;;;;;;;2.38;1.10;;;16.30;99.90;;;;;;5045044;28;20035;-69
2023/08/27 12:03:51;;;;;;;3.75;1.13;;;16.30;99.90;;;;;;5045617;28;20025;-69
2023/08/27 12:06:25;;;;;;;1.00;0.80;;;16.40;99.90;;;;;;5045118;28;20092;-69
2023/08/27 12:08:55;;;;;;;1.58;1.05;;;16.50;99.90;;;;;;5043527;28;20120;-69
2023/08/27 12:11:26;;;;;;;3.83;2.00;;;16.60;99.90;;;;;;5045119;28;20132;-69
2023/08/27 12:13:58;;;;;;;1.77;1.25;;;16.80;99.90;;;;;;5044857;28;20029;-69
2023/08/27 12:16:32;;;;;;;1.90;1.20;;;17.00;99.90;;;;;;5045451;28;20029;-69
2023/08/27 12:19:05;;;;;;;2.63;1.63;;;17.20;99.90;;;;;;5047102;28;20025;-69
2023/08/27 12:21:50;;;;;;;3.92;2.50;;;17.30;99.90;;;;;;5045019;28;20029;-69
2023/08/27 12:24:36;;;;;;;3.45;2.03;;;17.40;99.90;;;;;;5035968;28;20025;-70
2023/08/27 12:27:02;;;;;;;3.65;2.17;;;17.50;99.90;;;;;;5044706;28;20021;-69
2023/08/27 12:29:41;;;;;;;4.93;2.13;;;17.50;99.90;;;;;;5045182;28;20017;-70
2023/08/27 12:32:14;;;;;;;3.78;2.35;;;17.50;99.90;;;;;;5045532;28;20068;-69
2023/08/27 12:34:42;;;;;;;3.60;1.67;;;17.50;99.90;;;;;;5049202;28;20514;-69
2023/08/27 12:37:08;;;;;;;1.90;1.40;;;17.60;99.90;;;;;;5044331;28;20036;-69
2023/08/27 12:39:38;;;;;;;3.05;1.90;;;17.60;99.90;;;;;;5045016;28;20055;-69
2023/08/27 12:42:04;;;;;;;1.20;1.00;;;17.70;99.90;;;;;;5044634;28;20029;-69
2023/08/27 12:44:30;;;;;;;1.65;1.13;;;17.80;99.90;;;;;;5056093;28;20057;-69
2023/08/27 12:46:56;;;;;;;3.20;2.53;;;17.90;99.90;;;;;;5052938;28;20052;-69
2023/08/27 12:49:21;;;;;;;2.17;1.27;;;18.00;99.90;;;;;;5049110;28;20098;-69